createdAt,value
2019-05-10T00:00:37.980Z,997.51
2019-05-10T00:02:29.948Z,997.48
2019-05-10T00:03:29.888Z,997.50
2019-05-10T00:05:22.743Z,997.52
2019-05-10T00:06:22.653Z,997.53
2019-05-10T00:08:15.394Z,997.54
2019-05-10T00:09:15.315Z,997.51
2019-05-10T00:11:08.212Z,997.56
2019-05-10T00:12:08.149Z,997.56
2019-05-10T00:14:00.874Z,997.58
2019-05-10T00:15:00.812Z,997.59
2019-05-10T00:16:53.613Z,997.56
2019-05-10T00:17:53.509Z,997.54
2019-05-10T00:19:46.307Z,997.61
2019-05-10T00:20:46.262Z,997.59
2019-05-10T00:22:39.008Z,997.60
2019-05-10T00:23:38.983Z,997.64
2019-05-10T00:25:31.804Z,997.57
2019-05-10T00:26:31.644Z,997.59
2019-05-10T00:28:24.499Z,997.57
2019-05-10T00:29:24.445Z,997.62
2019-05-10T00:31:17.211Z,997.59
2019-05-10T00:32:17.147Z,997.63
2019-05-10T00:34:09.952Z,997.65
2019-05-10T00:35:09.868Z,997.61
2019-05-10T00:37:02.672Z,997.68
2019-05-10T00:38:02.628Z,997.62
2019-05-10T00:39:55.428Z,997.63
2019-05-10T00:40:55.342Z,997.61
2019-05-10T00:42:48.126Z,997.67
2019-05-10T00:43:48.058Z,997.67
2019-05-10T00:45:40.887Z,997.65
2019-05-10T00:46:40.768Z,997.65
2019-05-10T00:48:32.647Z,997.63
2019-05-10T00:49:32.565Z,997.68
2019-05-10T00:51:24.339Z,997.63
2019-05-10T00:52:24.281Z,997.64
2019-05-10T00:54:17.165Z,997.65
2019-05-10T00:55:19.235Z,997.66
2019-05-10T00:57:09.773Z,997.66
2019-05-10T00:58:09.700Z,997.64
2019-05-10T01:00:02.541Z,997.64
2019-05-10T01:01:02.422Z,997.63
2019-05-10T01:02:55.208Z,997.65
2019-05-10T01:03:55.149Z,997.66
2019-05-10T01:05:47.038Z,997.64
2019-05-10T01:06:46.963Z,997.64
2019-05-10T01:08:39.808Z,997.68
2019-05-10T01:09:39.677Z,997.69
2019-05-10T01:11:31.515Z,997.64
2019-05-10T01:12:31.436Z,997.67
2019-05-10T01:14:24.275Z,997.67
2019-05-10T01:15:24.195Z,997.63
2019-05-10T01:17:15.994Z,997.69
2019-05-10T01:18:15.875Z,997.70
2019-05-10T01:20:08.683Z,997.75
2019-05-10T01:21:08.610Z,997.73
2019-05-10T01:23:01.380Z,997.77
2019-05-10T01:24:01.307Z,997.80
2019-05-10T01:25:54.093Z,997.79
2019-05-10T01:26:54.022Z,997.78
2019-05-10T01:28:46.830Z,997.80
2019-05-10T01:29:46.744Z,997.79
2019-05-10T01:31:39.583Z,997.81
2019-05-10T01:32:39.503Z,997.81
2019-05-10T01:34:32.306Z,997.82
2019-05-10T01:35:32.245Z,997.84
2019-05-10T01:37:24.267Z,997.86
2019-05-10T01:38:24.133Z,997.90
2019-05-10T01:40:16.916Z,997.91
2019-05-10T01:41:16.838Z,997.87
2019-05-10T01:43:09.593Z,997.90
2019-05-10T01:44:09.540Z,997.91
2019-05-10T01:46:01.470Z,997.90
2019-05-10T01:47:01.401Z,997.91
2019-05-10T01:48:54.157Z,997.86
2019-05-10T01:49:54.104Z,997.89
2019-05-10T01:51:46.913Z,997.92
2019-05-10T01:52:46.809Z,997.88
2019-05-10T01:55:52.258Z,997.92
2019-05-10T01:56:47.709Z,997.89
2019-05-10T01:58:40.495Z,997.90
2019-05-10T01:59:40.424Z,997.90
2019-05-10T02:01:33.250Z,997.88
2019-05-10T02:02:33.239Z,997.88
2019-05-10T02:04:26.007Z,997.92
2019-05-10T02:05:25.850Z,997.88
2019-05-10T02:07:17.747Z,997.92
2019-05-10T02:08:17.691Z,997.96
2019-05-10T02:10:10.534Z,997.97
2019-05-10T02:11:10.432Z,998.02
2019-05-10T02:13:03.260Z,998.03
2019-05-10T02:14:03.139Z,998.06
2019-05-10T02:15:55.942Z,998.06
2019-05-10T02:16:55.846Z,998.05
2019-05-10T02:18:48.721Z,998.11
2019-05-10T02:19:48.649Z,998.12
2019-05-10T02:21:41.475Z,998.10
2019-05-10T02:22:41.372Z,998.13
2019-05-10T02:24:34.129Z,998.17
2019-05-10T02:25:34.062Z,998.18
2019-05-10T02:27:26.851Z,998.15
2019-05-10T02:28:26.773Z,998.14
2019-05-10T02:30:19.587Z,998.14
2019-05-10T02:31:21.568Z,998.14
2019-05-10T02:33:12.293Z,998.14
2019-05-10T02:34:12.210Z,998.15
2019-05-10T02:36:05.057Z,998.11
2019-05-10T02:37:04.942Z,998.16
2019-05-10T02:38:57.705Z,998.14
2019-05-10T02:39:57.624Z,998.14
2019-05-10T02:41:50.501Z,998.17
2019-05-10T02:42:50.390Z,998.17
2019-05-10T02:44:43.189Z,998.18
2019-05-10T02:45:43.110Z,998.22
2019-05-10T02:47:35.924Z,998.31
2019-05-10T02:48:35.855Z,998.31
2019-05-10T02:50:28.615Z,998.32
2019-05-10T02:51:28.553Z,998.30
2019-05-10T02:53:21.368Z,998.29
2019-05-10T02:54:21.352Z,998.27
2019-05-10T02:56:29.946Z,998.27
2019-05-10T02:57:14.016Z,998.32
2019-05-10T02:59:06.799Z,998.32
2019-05-10T03:00:06.965Z,998.29
2019-05-10T03:01:59.519Z,998.31
2019-05-10T03:02:59.423Z,998.34
2019-05-10T03:04:52.379Z,998.30
2019-05-10T03:05:52.155Z,998.31
2019-05-10T03:07:44.975Z,998.35
2019-05-10T03:08:44.853Z,998.35
2019-05-10T03:10:37.719Z,998.37
2019-05-10T03:11:37.572Z,998.37
2019-05-10T03:13:29.566Z,998.39
2019-05-10T03:14:29.487Z,998.43
2019-05-10T03:16:22.306Z,998.45
2019-05-10T03:17:22.233Z,998.42
2019-05-10T03:19:14.974Z,998.43
2019-05-10T03:20:14.917Z,998.42
2019-05-10T03:22:07.736Z,998.45
2019-05-10T03:23:07.633Z,998.43
2019-05-10T03:25:00.397Z,998.48
2019-05-10T03:26:00.406Z,998.50
2019-05-10T03:27:53.271Z,998.48
2019-05-10T03:28:53.151Z,998.48
2019-05-10T03:30:45.963Z,998.50
2019-05-10T03:31:45.890Z,998.46
2019-05-10T03:33:38.678Z,998.54
2019-05-10T03:34:38.621Z,998.52
2019-05-10T03:36:31.495Z,998.53
2019-05-10T03:37:31.297Z,998.54
2019-05-10T03:39:24.094Z,998.58
2019-05-10T03:40:24.143Z,998.53
2019-05-10T03:42:16.784Z,998.59
2019-05-10T03:43:16.700Z,998.53
2019-05-10T03:45:09.622Z,998.62
2019-05-10T03:46:09.499Z,998.60
2019-05-10T03:48:02.338Z,998.63
2019-05-10T03:49:02.385Z,998.64
2019-05-10T03:50:55.014Z,998.68
2019-05-10T03:51:54.949Z,998.72
2019-05-10T03:53:47.781Z,998.74
2019-05-10T03:54:47.706Z,998.75
2019-05-10T03:56:40.544Z,998.80
2019-05-10T03:57:40.501Z,998.77
2019-05-10T03:59:33.423Z,998.82
2019-05-10T04:00:33.364Z,998.77
2019-05-10T04:02:26.197Z,998.86
2019-05-10T04:03:26.093Z,998.89
2019-05-10T04:05:18.912Z,998.91
2019-05-10T04:06:18.818Z,998.91
2019-05-10T04:08:11.649Z,998.92
2019-05-10T04:09:11.557Z,998.95
2019-05-10T04:11:04.451Z,998.96
2019-05-10T04:12:04.394Z,998.99
2019-05-10T04:13:57.189Z,999.01
2019-05-10T04:14:57.100Z,999.01
2019-05-10T04:16:49.914Z,999.02
2019-05-10T04:17:50.468Z,999.03
2019-05-10T04:19:42.623Z,999.06
2019-05-10T04:20:42.540Z,999.04
2019-05-10T04:22:35.345Z,999.13
2019-05-10T04:23:35.290Z,999.13
2019-05-10T04:25:28.037Z,999.11
2019-05-10T04:26:27.998Z,999.11
2019-05-10T04:28:20.762Z,999.10
2019-05-10T04:29:20.671Z,999.15
2019-05-10T04:31:13.433Z,999.17
2019-05-10T04:32:13.362Z,999.16
2019-05-10T04:34:06.187Z,999.16
2019-05-10T04:35:06.110Z,999.17
2019-05-10T04:36:58.929Z,999.25
2019-05-10T04:37:58.851Z,999.28
2019-05-10T04:39:51.815Z,999.31
2019-05-10T04:40:51.591Z,999.33
2019-05-10T04:42:44.979Z,999.32
2019-05-10T04:43:44.910Z,999.32
2019-05-10T04:45:37.730Z,999.37
2019-05-10T04:46:37.659Z,999.38
2019-05-10T04:48:30.413Z,999.40
2019-05-10T04:49:30.339Z,999.40
2019-05-10T04:51:23.160Z,999.41
2019-05-10T04:52:23.067Z,999.40
2019-05-10T04:54:15.900Z,999.38
2019-05-10T04:55:15.803Z,999.42
2019-05-10T04:57:08.701Z,999.45
2019-05-10T04:58:08.560Z,999.43
2019-05-10T05:00:01.391Z,999.44
2019-05-10T05:01:01.302Z,999.48
2019-05-10T05:02:54.124Z,999.47
2019-05-10T05:03:54.013Z,999.48
2019-05-10T05:05:46.832Z,999.50
2019-05-10T05:06:46.765Z,999.50
2019-05-10T05:08:39.551Z,999.53
2019-05-10T05:09:39.482Z,999.54
2019-05-10T05:11:32.284Z,999.59
2019-05-10T05:12:32.202Z,999.61
2019-05-10T05:14:25.067Z,999.54
2019-05-10T05:15:24.939Z,999.59
2019-05-10T05:17:17.792Z,999.62
2019-05-10T05:18:17.711Z,999.56
2019-05-10T05:20:12.442Z,999.61
2019-05-10T05:21:12.355Z,999.62
2019-05-10T05:23:05.202Z,999.65
2019-05-10T05:24:05.043Z,999.69
2019-05-10T05:25:57.767Z,999.70
2019-05-10T05:26:57.706Z,999.66
2019-05-10T05:28:50.556Z,999.69
2019-05-10T05:29:50.558Z,999.73
2019-05-10T05:31:43.298Z,999.76
2019-05-10T05:32:44.443Z,999.73
2019-05-10T05:34:36.190Z,999.78
2019-05-10T05:35:35.945Z,999.79
2019-05-10T05:37:28.749Z,999.84
2019-05-10T05:38:28.675Z,999.88
2019-05-10T05:40:21.498Z,999.93
2019-05-10T05:41:21.403Z,999.92
2019-05-10T05:43:14.221Z,999.92
2019-05-10T05:44:14.113Z,999.94
2019-05-10T05:46:06.042Z,999.91
2019-05-10T05:47:05.968Z,999.95
2019-05-10T05:48:58.735Z,999.92
2019-05-10T05:49:58.678Z,999.95
2019-05-10T05:51:51.477Z,1000.01
2019-05-10T05:52:51.373Z,1000.01
2019-05-10T05:54:44.178Z,1000.02
2019-05-10T05:55:44.106Z,1000.07
2019-05-10T05:57:36.892Z,1000.06
2019-05-10T05:58:38.134Z,1000.09
2019-05-10T06:00:29.632Z,1000.09
2019-05-10T06:01:29.847Z,1000.08
2019-05-10T06:03:27.763Z,999.98
2019-05-10T06:04:22.316Z,1000.09
2019-05-10T06:06:20.513Z,1000.15
2019-05-10T06:07:15.088Z,1000.16
2019-05-10T06:09:08.028Z,1000.28
2019-05-10T06:10:10.430Z,1000.22
2019-05-10T06:12:00.757Z,1000.23
2019-05-10T06:13:00.532Z,1000.27
2019-05-10T06:14:53.341Z,1000.26
2019-05-10T06:15:53.312Z,1000.18
2019-05-10T06:17:56.184Z,1000.31
2019-05-10T06:18:47.317Z,1000.30
2019-05-10T06:20:44.594Z,1000.32
2019-05-10T06:21:38.811Z,1000.34
2019-05-10T06:23:35.005Z,1000.33
2019-05-10T06:24:34.339Z,1000.36
2019-05-10T06:26:28.589Z,1000.35
2019-05-10T06:27:24.281Z,1000.35
2019-05-10T06:29:18.187Z,1000.39
2019-05-10T06:30:17.055Z,1000.41
2019-05-10T06:32:09.794Z,1000.42
2019-05-10T06:33:12.667Z,1000.41
2019-05-10T06:35:03.122Z,1000.42
2019-05-10T06:36:03.017Z,1000.41
2019-05-10T06:37:55.828Z,1000.44
2019-05-10T06:38:55.727Z,1000.47
2019-05-10T06:40:48.562Z,1000.50
2019-05-10T06:41:49.969Z,1000.50
2019-05-10T06:43:45.643Z,1000.50
2019-05-10T06:44:41.214Z,1000.47
2019-05-10T06:46:34.186Z,1000.49
2019-05-10T06:47:33.977Z,1000.52
2019-05-10T06:49:25.815Z,1000.48
2019-05-10T06:50:30.158Z,1000.49
2019-05-10T06:52:22.116Z,1000.49
2019-05-10T06:53:18.508Z,1000.52
2019-05-10T06:55:11.301Z,1000.49
2019-05-10T06:56:11.203Z,1000.52
2019-05-10T06:58:04.004Z,1000.53
2019-05-10T06:59:13.124Z,1000.55
2019-05-10T07:00:59.464Z,1000.48
2019-05-10T07:01:58.472Z,1000.52
2019-05-10T07:03:51.287Z,1000.54
2019-05-10T07:04:51.240Z,1000.55
2019-05-10T07:06:44.105Z,1000.53
2019-05-10T07:07:45.413Z,1000.57
2019-05-10T07:10:01.480Z,1000.55
2019-05-10T07:10:36.674Z,1000.54
2019-05-10T07:12:30.297Z,1000.59
2019-05-10T07:13:29.470Z,1000.66
2019-05-10T07:15:22.235Z,1000.64
2019-05-10T07:16:25.547Z,1000.60
2019-05-10T07:18:16.772Z,1000.68
2019-05-10T07:19:15.179Z,1000.66
2019-05-10T07:21:08.771Z,1000.66
2019-05-10T07:22:07.692Z,1000.64
2019-05-10T07:24:00.553Z,1000.64
2019-05-10T07:25:04.480Z,1000.63
2019-05-10T07:26:56.543Z,1000.66
2019-05-10T07:27:53.195Z,1000.71
2019-05-10T07:29:46.348Z,1000.70
2019-05-10T07:30:45.960Z,1000.76
2019-05-10T07:32:38.769Z,1000.72
2019-05-10T07:33:40.167Z,1000.81
2019-05-10T07:35:36.967Z,1000.73
2019-05-10T07:36:31.471Z,1000.81
2019-05-10T07:38:30.996Z,1000.81
2019-05-10T07:39:24.227Z,1000.85
2019-05-10T07:41:19.660Z,1000.87
2019-05-10T07:42:17.084Z,1000.87
2019-05-10T07:44:10.612Z,1000.88
2019-05-10T07:45:09.708Z,1000.92
2019-05-10T07:47:02.589Z,1000.92
2019-05-10T07:48:07.880Z,1000.91
2019-05-10T07:49:55.350Z,1000.97
2019-05-10T07:50:55.279Z,1000.99
2019-05-10T07:52:48.083Z,1000.97
2019-05-10T07:53:48.020Z,1001.04
2019-05-10T07:55:40.819Z,1001.08
2019-05-10T07:56:45.700Z,1001.10
2019-05-10T07:58:38.147Z,1001.15
2019-05-10T07:59:49.601Z,1001.15
2019-05-10T08:01:32.301Z,1001.17
2019-05-10T08:02:26.196Z,1001.13
2019-05-10T08:04:27.974Z,1001.17
2019-05-10T08:05:18.921Z,1001.18
2019-05-10T08:07:11.738Z,1001.27
2019-05-10T08:08:11.654Z,1001.23
2019-05-10T08:10:04.948Z,1001.28
2019-05-10T08:11:04.423Z,1001.27
2019-05-10T08:12:59.576Z,1001.28
2019-05-10T08:14:05.862Z,1001.28
2019-05-10T08:15:49.158Z,1001.33
2019-05-10T08:16:57.886Z,1001.38
2019-05-10T08:18:42.405Z,1001.43
2019-05-10T08:19:41.800Z,1001.39
2019-05-10T08:21:34.611Z,1001.41
2019-05-10T08:22:41.625Z,1001.43
2019-05-10T08:24:27.338Z,1001.47
2019-05-10T08:25:29.085Z,1001.53
2019-05-10T08:27:20.082Z,1001.44
2019-05-10T08:28:22.690Z,1001.50
2019-05-10T08:30:25.568Z,1001.44
2019-05-10T08:31:13.472Z,1001.48
2019-05-10T08:33:09.620Z,1001.57
2019-05-10T08:34:06.194Z,1001.56
2019-05-10T08:36:04.979Z,1001.64
2019-05-10T08:36:58.106Z,1001.59
2019-05-10T08:39:03.089Z,1001.65
2019-05-10T08:39:55.791Z,1001.74
2019-05-10T08:41:45.829Z,1001.69
2019-05-10T08:42:47.994Z,1001.68
2019-05-10T08:44:36.338Z,1001.67
2019-05-10T08:45:38.970Z,1001.66
2019-05-10T08:47:29.107Z,1001.64
2019-05-10T08:48:29.065Z,1001.65
2019-05-10T08:50:42.612Z,1001.65
2019-05-10T08:51:22.805Z,1001.68
2019-05-10T08:53:16.576Z,1001.69
2019-05-10T08:54:14.533Z,1001.69
2019-05-10T08:56:12.973Z,1001.71
2019-05-10T08:57:07.471Z,1001.69
2019-05-10T08:59:00.231Z,1001.73
2019-05-10T09:00:06.462Z,1001.68
2019-05-10T09:01:53.807Z,1001.73
2019-05-10T09:02:52.883Z,1001.78
2019-05-10T09:04:50.217Z,1001.81
2019-05-10T09:05:45.617Z,1001.75
2019-05-10T09:07:39.105Z,1001.77
2019-05-10T09:08:38.363Z,1001.81
2019-05-10T09:10:32.380Z,1001.71
2019-05-10T09:11:32.774Z,1001.77
2019-05-10T09:13:28.775Z,1001.72
2019-05-10T09:14:24.333Z,1001.76
2019-05-10T09:16:17.134Z,1001.74
2019-05-10T09:17:23.720Z,1001.80
2019-05-10T09:19:09.814Z,1001.87
2019-05-10T09:20:11.977Z,1001.80
2019-05-10T09:22:02.625Z,1001.86
2019-05-10T09:23:02.595Z,1001.87
2019-05-10T09:24:55.444Z,1001.81
2019-05-10T09:25:55.381Z,1001.84
2019-05-10T09:27:48.237Z,1001.84
2019-05-10T09:28:53.550Z,1001.85
2019-05-10T09:30:54.151Z,1001.85
2019-05-10T09:31:46.034Z,1001.86
2019-05-10T09:33:33.828Z,1001.81
2019-05-10T09:34:33.685Z,1001.81
2019-05-10T09:36:31.170Z,1001.86
2019-05-10T09:37:26.427Z,1001.87
2019-05-10T09:39:24.208Z,1001.93
2019-05-10T09:40:18.243Z,1001.83
2019-05-10T09:42:25.141Z,1001.86
2019-05-10T09:43:12.454Z,1001.88
2019-05-10T09:45:03.919Z,1001.93
2019-05-10T09:46:03.850Z,1001.86
2019-05-10T09:47:55.800Z,1001.89
2019-05-10T09:49:06.110Z,1001.88
2019-05-10T09:50:48.698Z,1001.92
2019-05-10T09:51:48.484Z,1001.95
2019-05-10T09:53:41.587Z,1001.93
2019-05-10T09:54:41.270Z,1001.97
2019-05-10T09:56:39.533Z,1002.08
2019-05-10T09:57:34.185Z,1001.94
2019-05-10T09:59:27.779Z,1002.08
2019-05-10T10:00:30.184Z,1002.10
2019-05-10T10:02:19.745Z,1002.21
2019-05-10T10:03:19.750Z,1002.18
2019-05-10T10:05:13.094Z,1002.27
2019-05-10T10:06:12.597Z,1002.24
2019-05-10T10:08:09.244Z,1002.20
2019-05-10T10:09:07.442Z,1002.20
2019-05-10T10:11:01.368Z,1002.34
2019-05-10T10:12:02.867Z,1002.38
2019-05-10T10:13:58.959Z,1002.35
2019-05-10T10:14:50.089Z,1002.36
2019-05-10T10:16:48.810Z,1002.40
2019-05-10T10:17:42.762Z,1002.37
2019-05-10T10:19:37.676Z,1002.37
2019-05-10T10:20:40.639Z,1002.44
2019-05-10T10:22:28.934Z,1002.42
2019-05-10T10:23:30.665Z,1002.42
2019-05-10T10:25:21.151Z,1002.45
2019-05-10T10:26:22.487Z,1002.50
2019-05-10T10:28:18.870Z,1002.51
2019-05-10T10:29:13.812Z,1002.51
2019-05-10T10:31:08.430Z,1002.48
2019-05-10T10:32:07.909Z,1002.45
2019-05-10T10:34:02.578Z,1002.45
2019-05-10T10:34:59.284Z,1002.46
2019-05-10T10:36:52.082Z,1002.43
2019-05-10T10:37:52.019Z,1002.46
2019-05-10T10:39:47.528Z,1002.47
2019-05-10T10:40:46.063Z,1002.47
2019-05-10T10:42:38.062Z,1002.45
2019-05-10T10:43:37.206Z,1002.45
2019-05-10T10:45:29.389Z,1002.51
2019-05-10T10:46:29.309Z,1002.48
2019-05-10T10:48:22.099Z,1002.56
2019-05-10T10:49:23.133Z,1002.58
2019-05-10T10:51:14.842Z,1002.62
2019-05-10T10:52:14.765Z,1002.60
2019-05-10T10:54:07.618Z,1002.66
2019-05-10T10:55:11.228Z,1002.60
2019-05-10T10:57:00.312Z,1002.66
2019-05-10T10:58:00.237Z,1002.57
2019-05-10T10:59:53.052Z,1002.62
2019-05-10T11:00:52.970Z,1002.63
2019-05-10T11:02:46.925Z,1002.64
2019-05-10T11:03:48.561Z,1002.61
2019-05-10T11:05:37.962Z,1002.66
2019-05-10T11:06:37.876Z,1002.71
2019-05-10T11:08:32.946Z,1002.67
2019-05-10T11:09:31.150Z,1002.64
2019-05-10T11:11:23.432Z,1002.68
2019-05-10T11:12:24.148Z,1002.67
2019-05-10T11:14:16.210Z,1002.65
2019-05-10T11:15:16.405Z,1002.69
2019-05-10T11:17:08.154Z,1002.73
2019-05-10T11:18:08.098Z,1002.70
2019-05-10T11:20:00.928Z,1002.67
2019-05-10T11:21:01.967Z,1002.67
2019-05-10T11:22:53.776Z,1002.76
2019-05-10T11:23:53.635Z,1002.75
2019-05-10T11:25:54.748Z,1002.76
2019-05-10T11:26:45.547Z,1002.78
2019-05-10T11:28:40.039Z,1002.81
2019-05-10T11:29:38.289Z,1002.78
2019-05-10T11:31:31.348Z,1002.78
2019-05-10T11:32:31.585Z,1002.80
2019-05-10T11:34:31.647Z,1002.84
2019-05-10T11:35:28.450Z,1002.79
2019-05-10T11:37:18.538Z,1002.80
2019-05-10T11:38:16.535Z,1002.78
2019-05-10T11:40:11.310Z,1002.82
2019-05-10T11:41:13.675Z,1002.78
2019-05-10T11:43:02.087Z,1002.74
2019-05-10T11:44:05.245Z,1002.75
2019-05-10T11:45:54.851Z,1002.76
2019-05-10T11:46:54.775Z,1002.75
2019-05-10T11:48:47.673Z,1002.85
2019-05-10T11:49:47.595Z,1002.80
2019-05-10T11:51:41.370Z,1002.82
2019-05-10T11:52:40.891Z,1002.80
2019-05-10T11:54:33.171Z,1002.84
2019-05-10T11:55:35.770Z,1002.79
2019-05-10T11:57:25.930Z,1002.85
2019-05-10T11:58:25.872Z,1002.84
2019-05-10T12:00:25.715Z,1002.84
2019-05-10T12:03:18.198Z,1002.85
2019-05-10T12:04:22.670Z,1002.83
2019-05-10T12:06:08.823Z,1002.83
2019-05-10T12:07:08.438Z,1002.87
2019-05-10T12:09:01.066Z,1002.84
2019-05-10T12:10:08.355Z,1002.85
2019-05-10T12:11:56.460Z,1002.79
2019-05-10T12:13:01.779Z,1002.76
2019-05-10T12:14:43.682Z,1002.81
2019-05-10T12:15:43.208Z,1002.80
2019-05-10T12:17:35.236Z,1002.82
2019-05-10T12:18:36.284Z,1002.85
2019-05-10T12:20:41.472Z,1002.83
2019-05-10T12:21:27.007Z,1002.88
2019-05-10T12:23:30.106Z,1002.94
2019-05-10T12:24:33.972Z,1002.84
2019-05-10T12:26:18.979Z,1002.76
2019-05-10T12:27:12.808Z,1002.86
2019-05-10T12:27:22.045Z,1002.86
2019-05-10T12:29:11.966Z,1002.93
2019-05-10T12:30:05.199Z,1002.89
2019-05-10T12:31:58.038Z,1002.95
2019-05-10T12:33:05.983Z,1002.96
2019-05-10T12:34:56.347Z,1002.97
2019-05-10T12:35:51.155Z,1002.98
2019-05-10T12:37:46.522Z,1003.06
2019-05-10T12:38:43.717Z,1003.12
2019-05-10T12:40:36.542Z,1003.20
2019-05-10T12:41:39.659Z,1003.27
2019-05-10T12:43:30.928Z,1003.29
2019-05-10T12:44:33.233Z,1003.38
2019-05-10T12:46:22.001Z,1003.37
2019-05-10T12:47:21.930Z,1003.41
2019-05-10T12:49:17.570Z,1003.36
2019-05-10T12:50:16.448Z,1003.27
2019-05-10T12:52:13.949Z,1003.34
2019-05-10T12:53:15.416Z,1003.34
2019-05-10T12:55:02.220Z,1003.37
2019-05-10T12:56:01.831Z,1003.38
2019-05-10T12:57:54.727Z,1003.39
2019-05-10T12:58:57.400Z,1003.40
2019-05-10T13:00:52.623Z,1003.44
2019-05-10T13:01:47.272Z,1003.42
2019-05-10T13:03:39.325Z,1003.37
2019-05-10T13:04:40.977Z,1003.38
2019-05-10T13:06:32.095Z,1003.44
2019-05-10T13:07:32.003Z,1003.43
2019-05-10T13:09:38.538Z,1003.48
2019-05-10T13:10:24.028Z,1003.51
2019-05-10T13:12:16.848Z,1003.57
2019-05-10T13:13:17.687Z,1003.55
2019-05-10T13:15:09.563Z,1003.60
2019-05-10T13:16:11.873Z,1003.64
2019-05-10T13:18:02.387Z,1003.61
2019-05-10T13:19:02.208Z,1003.69
2019-05-10T13:20:54.140Z,1003.72
2019-05-10T13:21:58.741Z,1003.70
2019-05-10T13:23:46.930Z,1003.76
2019-05-10T13:24:46.835Z,1003.74
2019-05-10T13:26:39.681Z,1003.71
2019-05-10T13:27:39.619Z,1003.75
2019-05-10T13:29:32.508Z,1003.72
2019-05-10T13:30:32.421Z,1003.77
2019-05-10T13:32:25.225Z,1003.75
2019-05-10T13:33:29.144Z,1003.78
2019-05-10T13:35:17.949Z,1003.78
2019-05-10T13:36:17.875Z,1003.79
2019-05-10T13:38:10.745Z,1003.77
2019-05-10T13:39:10.653Z,1003.78
2019-05-10T13:41:03.473Z,1003.80
2019-05-10T13:42:04.962Z,1003.83
2019-05-10T13:43:59.052Z,1003.80
2019-05-10T13:44:56.142Z,1003.83
2019-05-10T13:46:47.989Z,1003.87
2019-05-10T13:47:47.890Z,1003.82
2019-05-10T13:49:40.753Z,1003.84
2019-05-10T13:50:40.631Z,1003.86
2019-05-10T13:52:37.772Z,1003.83
2019-05-10T13:53:32.391Z,1003.85
2019-05-10T13:55:25.292Z,1003.88
2019-05-10T13:56:25.163Z,1003.85
2019-05-10T13:58:17.984Z,1003.90
2019-05-10T13:59:18.159Z,1003.89
2019-05-10T14:01:13.169Z,1003.85
2019-05-10T14:02:10.589Z,1003.87
2019-05-10T14:04:03.645Z,1003.89
2019-05-10T14:05:03.294Z,1003.91
2019-05-10T14:06:56.147Z,1003.88
2019-05-10T14:07:56.010Z,1003.83
2019-05-10T14:09:48.766Z,1003.87
2019-05-10T14:10:49.594Z,1003.88
2019-05-10T14:12:41.487Z,1003.83
2019-05-10T14:13:43.188Z,1003.91
2019-05-10T14:15:34.173Z,1003.89
2019-05-10T14:16:34.119Z,1003.91
2019-05-10T14:18:26.908Z,1003.95
2019-05-10T14:19:26.840Z,1003.89
2019-05-10T14:21:19.613Z,1003.93
2019-05-10T14:22:19.553Z,1003.91
2019-05-10T14:24:15.337Z,1003.96
2019-05-10T14:25:12.261Z,1003.96
2019-05-10T14:27:04.116Z,1003.97
2019-05-10T14:28:09.728Z,1003.99
2019-05-10T14:29:56.828Z,1004.01
2019-05-10T14:30:58.671Z,1004.04
2019-05-10T14:32:48.550Z,1003.95
2019-05-10T14:34:14.148Z,1003.97
2019-05-10T14:35:41.266Z,1003.97
2019-05-10T14:36:43.384Z,1003.99
2019-05-10T14:38:33.989Z,1003.99
2019-05-10T14:39:33.902Z,1003.96
2019-05-10T14:41:26.682Z,1003.92
2019-05-10T14:42:31.103Z,1003.91
2019-05-10T14:44:19.417Z,1003.90
2019-05-10T14:45:19.338Z,1003.96
2019-05-10T14:47:12.122Z,1003.97
2019-05-10T14:48:12.047Z,1003.95
2019-05-10T14:50:04.921Z,1003.96
2019-05-10T14:51:11.070Z,1003.92
2019-05-10T14:52:57.556Z,1003.88
2019-05-10T14:53:58.158Z,1003.87
2019-05-10T14:55:50.289Z,1003.94
2019-05-10T14:56:53.490Z,1003.95
2019-05-10T14:58:43.007Z,1003.98
2019-05-10T14:59:42.934Z,1004.05
2019-05-10T15:01:36.852Z,1004.08
2019-05-10T15:02:35.677Z,1004.03
2019-05-10T15:04:44.614Z,1004.05
2019-05-10T15:05:28.417Z,1004.08
2019-05-10T15:07:21.191Z,1003.95
2019-05-10T15:08:21.117Z,1004.11
2019-05-10T15:10:13.883Z,1004.09
2019-05-10T15:11:13.825Z,1004.15
2019-05-10T15:13:06.615Z,1004.22
2019-05-10T15:14:06.560Z,1004.19
2019-05-10T15:15:59.299Z,1004.24
2019-05-10T15:16:59.246Z,1004.28
2019-05-10T15:18:52.057Z,1004.24
2019-05-10T15:19:58.016Z,1004.24
2019-05-10T15:21:43.907Z,1004.34
2019-05-10T15:22:43.834Z,1004.36
2019-05-10T15:24:36.682Z,1004.34
2019-05-10T15:25:36.547Z,1004.52
2019-05-10T15:27:29.420Z,1004.61
2019-05-10T15:28:34.654Z,1004.60
2019-05-10T15:30:22.117Z,1004.63
2019-05-10T15:31:23.660Z,1004.65
2019-05-10T15:33:14.913Z,1004.68
2019-05-10T15:34:14.799Z,1004.63
2019-05-10T15:36:07.706Z,1004.66
2019-05-10T15:37:09.399Z,1004.75
2019-05-10T15:39:00.401Z,1004.93
2019-05-10T15:40:05.454Z,1004.78
2019-05-10T15:41:53.482Z,1004.78
2019-05-10T15:42:52.064Z,1004.78
2019-05-10T15:44:43.994Z,1004.83
2019-05-10T15:45:45.911Z,1004.85
2019-05-10T15:47:50.073Z,1004.94
2019-05-10T15:48:41.733Z,1004.96
2019-05-10T15:50:32.519Z,1004.92
2019-05-10T15:51:36.377Z,1004.93
2019-05-10T15:53:25.585Z,1004.91
2019-05-10T15:54:22.140Z,1004.88
2019-05-10T15:56:14.904Z,1004.87
2019-05-10T15:57:20.179Z,1004.91
2019-05-10T15:59:06.812Z,1004.90
2019-05-10T16:00:06.725Z,1004.95
2019-05-10T16:01:59.557Z,1004.91
2019-05-10T16:02:59.496Z,1005.02
2019-05-10T16:04:52.289Z,1004.99
2019-05-10T16:06:00.435Z,1005.00
2019-05-10T16:07:46.575Z,1005.09
2019-05-10T16:08:45.012Z,1004.99
2019-05-10T16:10:39.347Z,1005.06
2019-05-10T16:11:36.862Z,1005.08
2019-05-10T16:13:29.659Z,1005.12
2019-05-10T16:14:33.005Z,1005.20
2019-05-10T16:16:22.354Z,1005.20
2019-05-10T16:17:23.917Z,1005.12
2019-05-10T16:19:18.491Z,1005.21
2019-05-10T16:20:13.991Z,1005.18
2019-05-10T16:22:06.861Z,1005.19
2019-05-10T16:23:08.682Z,1005.23
2019-05-10T16:25:02.533Z,1005.21
2019-05-10T16:25:59.461Z,1005.31
2019-05-10T16:27:51.429Z,1005.25
2019-05-10T16:28:53.102Z,1005.25
2019-05-10T16:30:47.065Z,1005.30
2019-05-10T16:31:44.207Z,1005.30
2019-05-10T16:33:36.960Z,1005.30
2019-05-10T16:34:36.883Z,1005.36
2019-05-10T16:36:30.181Z,1005.38
2019-05-10T16:37:29.704Z,1005.33
2019-05-10T16:39:22.529Z,1005.35
2019-05-10T16:40:22.457Z,1005.41
2019-05-10T16:42:15.317Z,1005.42
2019-05-10T16:43:22.191Z,1005.45
2019-05-10T16:45:08.060Z,1005.43
2019-05-10T16:46:07.999Z,1005.45
2019-05-10T16:48:05.432Z,1005.48
2019-05-10T16:49:00.717Z,1005.50
2019-05-10T16:50:52.540Z,1005.52
2019-05-10T16:51:52.483Z,1005.55
2019-05-10T16:53:45.986Z,1005.56
2019-05-10T16:54:45.267Z,1005.52
2019-05-10T16:56:38.073Z,1005.55
2019-05-10T16:57:39.421Z,1005.54
2019-05-10T16:59:31.495Z,1005.58
2019-05-10T17:00:30.784Z,1005.52
2019-05-10T17:02:23.531Z,1005.59
2019-05-10T17:03:23.465Z,1005.57
2019-05-10T17:05:17.460Z,1005.64
2019-05-10T17:06:16.269Z,1005.63
2019-05-10T17:08:09.022Z,1005.67
2019-05-10T17:09:17.556Z,1005.69
2019-05-10T17:11:09.623Z,1005.76
2019-05-10T17:12:01.662Z,1005.82
2019-05-10T17:13:55.669Z,1005.82
2019-05-10T17:14:56.475Z,1005.85
2019-05-10T17:16:50.230Z,1005.85
2019-05-10T17:17:47.201Z,1005.89
2019-05-10T17:19:39.941Z,1005.92
2019-05-10T17:20:39.886Z,1005.98
2019-05-10T17:22:32.665Z,1005.96
2019-05-10T17:23:32.593Z,1005.95
2019-05-10T17:25:25.409Z,1006.01
2019-05-10T17:26:25.345Z,1005.99
2019-05-10T17:28:18.109Z,1006.02
2019-05-10T17:29:18.035Z,1006.07
2019-05-10T17:31:10.884Z,1006.14
2019-05-10T17:32:10.784Z,1006.12
2019-05-10T17:34:03.640Z,1006.12
2019-05-10T17:35:04.608Z,1006.18
2019-05-10T17:36:57.932Z,1006.12